sensor_id;sensor_type;location;lat;lon;timestamp;temperature;humidity
7472;DHT22;3777;48.722;8.110;2023-02-03T00:00:38;7.90;99.90
7472;DHT22;3777;48.722;8.110;2023-02-03T00:03:06;7.90;99.90
7472;DHT22;3777;48.722;8.110;2023-02-03T00:05:34;7.80;99.90
7472;DHT22;3777;48.722;8.110;2023-02-03T00:08:02;7.80;99.90
7472;DHT22;3777;48.722;8.110;2023-02-03T00:10:29;7.80;99.90
7472;DHT22;3777;48.722;8.110;2023-02-03T00:12:56;7.80;99.90
7472;DHT22;3777;48.722;8.110;2023-02-03T00:15:23;7.90;99.90
7472;DHT22;3777;48.722;8.110;2023-02-03T00:17:51;7.90;99.90
7472;DHT22;3777;48.722;8.110;2023-02-03T00:20:19;7.90;99.90
7472;DHT22;3777;48.722;8.110;2023-02-03T00:22:46;7.90;99.90
7472;DHT22;3777;48.722;8.110;2023-02-03T00:25:13;7.90;99.90
7472;DHT22;3777;48.722;8.110;2023-02-03T00:27:40;8.00;99.90
7472;DHT22;3777;48.722;8.110;2023-02-03T00:30:08;8.00;99.90
7472;DHT22;3777;48.722;8.110;2023-02-03T00:32:35;8.00;99.90
7472;DHT22;3777;48.722;8.110;2023-02-03T00:35:03;8.10;99.90
7472;DHT22;3777;48.722;8.110;2023-02-03T00:37:31;8.20;99.90
7472;DHT22;3777;48.722;8.110;2023-02-03T00:39:58;8.20;99.90
7472;DHT22;3777;48.722;8.110;2023-02-03T00:42:25;8.30;99.90
7472;DHT22;3777;48.722;8.110;2023-02-03T00:44:52;8.30;99.90
7472;DHT22;3777;48.722;8.110;2023-02-03T00:47:19;8.30;99.90
7472;DHT22;3777;48.722;8.110;2023-02-03T00:49:46;8.30;99.90
7472;DHT22;3777;48.722;8.110;2023-02-03T00:52:13;8.30;99.90
7472;DHT22;3777;48.722;8.110;2023-02-03T00:54:41;8.30;99.90
7472;DHT22;3777;48.722;8.110;2023-02-03T00:57:08;8.20;99.90
7472;DHT22;3777;48.722;8.110;2023-02-03T00:59:35;8.20;99.90
7472;DHT22;3777;48.722;8.110;2023-02-03T01:02:02;8.20;99.90
7472;DHT22;3777;48.722;8.110;2023-02-03T01:04:29;8.20;99.90
7472;DHT22;3777;48.722;8.110;2023-02-03T01:06:56;8.20;99.90
7472;DHT22;3777;48.722;8.110;2023-02-03T01:09:24;8.20;99.90
7472;DHT22;3777;48.722;8.110;2023-02-03T01:11:53;8.20;99.90
7472;DHT22;3777;48.722;8.110;2023-02-03T01:14:20;8.10;99.90
7472;DHT22;3777;48.722;8.110;2023-02-03T01:16:47;8.20;99.90
7472;DHT22;3777;48.722;8.110;2023-02-03T01:19:14;8.10;99.90
7472;DHT22;3777;48.722;8.110;2023-02-03T01:21:41;8.10;99.90
7472;DHT22;3777;48.722;8.110;2023-02-03T01:24:09;8.10;99.90
7472;DHT22;3777;48.722;8.110;2023-02-03T01:26:36;8.10;99.90
7472;DHT22;3777;48.722;8.110;2023-02-03T01:29:04;8.10;99.90
7472;DHT22;3777;48.722;8.110;2023-02-03T01:31:32;8.10;99.90
7472;DHT22;3777;48.722;8.110;2023-02-03T01:34:02;8.00;99.90
7472;DHT22;3777;48.722;8.110;2023-02-03T01:36:30;8.00;99.90
7472;DHT22;3777;48.722;8.110;2023-02-03T01:38:58;8.00;99.90
7472;DHT22;3777;48.722;8.110;2023-02-03T01:41:27;8.00;99.90
7472;DHT22;3777;48.722;8.110;2023-02-03T01:43:56;7.90;99.90
7472;DHT22;3777;48.722;8.110;2023-02-03T01:46:32;8.00;99.90
7472;DHT22;3777;48.722;8.110;2023-02-03T01:49:05;8.00;99.90
7472;DHT22;3777;48.722;8.110;2023-02-03T01:51:34;8.00;99.90
7472;DHT22;3777;48.722;8.110;2023-02-03T01:54:03;7.90;99.90
7472;DHT22;3777;48.722;8.110;2023-02-03T01:56:34;7.90;99.90
7472;DHT22;3777;48.722;8.110;2023-02-03T01:59:02;7.90;99.90
7472;DHT22;3777;48.722;8.110;2023-02-03T02:01:31;7.80;99.90
7472;DHT22;3777;48.722;8.110;2023-02-03T02:04:00;7.80;99.90
7472;DHT22;3777;48.722;8.110;2023-02-03T02:06:28;7.80;99.90
7472;DHT22;3777;48.722;8.110;2023-02-03T02:08:57;7.80;99.90
7472;DHT22;3777;48.722;8.110;2023-02-03T02:11:25;7.70;99.90
7472;DHT22;3777;48.722;8.110;2023-02-03T02:13:55;7.80;99.90
7472;DHT22;3777;48.722;8.110;2023-02-03T02:16:32;7.60;99.90
7472;DHT22;3777;48.722;8.110;2023-02-03T02:22:05;7.60;99.90
7472;DHT22;3777;48.722;8.110;2023-02-03T02:27:58;7.40;99.90
7472;DHT22;3777;48.722;8.110;2023-02-03T02:30:45;7.20;99.90
7472;DHT22;3777;48.722;8.110;2023-02-03T02:33:22;7.10;99.90
7472;DHT22;3777;48.722;8.110;2023-02-03T02:35:57;7.00;99.90
7472;DHT22;3777;48.722;8.110;2023-02-03T02:38:40;7.00;99.90
7472;DHT22;3777;48.722;8.110;2023-02-03T02:41:14;7.00;99.90
7472;DHT22;3777;48.722;8.110;2023-02-03T02:43:43;7.10;99.90
7472;DHT22;3777;48.722;8.110;2023-02-03T02:46:13;7.10;99.90
7472;DHT22;3777;48.722;8.110;2023-02-03T02:48:47;7.20;99.90
7472;DHT22;3777;48.722;8.110;2023-02-03T02:51:16;7.20;99.90
7472;DHT22;3777;48.722;8.110;2023-02-03T02:53:47;7.30;99.90
7472;DHT22;3777;48.722;8.110;2023-02-03T02:56:16;7.40;99.90
7472;DHT22;3777;48.722;8.110;2023-02-03T02:58:45;7.40;99.90
7472;DHT22;3777;48.722;8.110;2023-02-03T03:01:14;7.50;99.90
7472;DHT22;3777;48.722;8.110;2023-02-03T03:03:43;7.50;99.90
7472;DHT22;3777;48.722;8.110;2023-02-03T03:06:12;7.50;99.90
7472;DHT22;3777;48.722;8.110;2023-02-03T03:08:45;7.50;99.90
7472;DHT22;3777;48.722;8.110;2023-02-03T03:11:13;7.60;99.90
7472;DHT22;3777;48.722;8.110;2023-02-03T03:13:46;7.70;99.90
7472;DHT22;3777;48.722;8.110;2023-02-03T03:16:14;7.60;99.90
7472;DHT22;3777;48.722;8.110;2023-02-03T03:18:45;7.60;99.90
7472;DHT22;3777;48.722;8.110;2023-02-03T03:21:18;7.70;99.90
7472;DHT22;3777;48.722;8.110;2023-02-03T03:23:47;7.60;99.90
7472;DHT22;3777;48.722;8.110;2023-02-03T03:26:20;7.70;99.90
7472;DHT22;3777;48.722;8.110;2023-02-03T03:28:49;7.70;99.90
7472;DHT22;3777;48.722;8.110;2023-02-03T03:31:18;7.80;99.90
7472;DHT22;3777;48.722;8.110;2023-02-03T03:33:47;7.80;99.90
7472;DHT22;3777;48.722;8.110;2023-02-03T03:36:21;7.80;99.90
7472;DHT22;3777;48.722;8.110;2023-02-03T03:38:54;7.80;99.90
7472;DHT22;3777;48.722;8.110;2023-02-03T03:41:28;7.90;99.90
7472;DHT22;3777;48.722;8.110;2023-02-03T03:43:59;7.90;99.90
7472;DHT22;3777;48.722;8.110;2023-02-03T03:46:31;7.90;99.90
7472;DHT22;3777;48.722;8.110;2023-02-03T03:49:02;7.90;99.90
7472;DHT22;3777;48.722;8.110;2023-02-03T03:51:32;7.90;99.90
7472;DHT22;3777;48.722;8.110;2023-02-03T03:54:03;7.90;99.90
7472;DHT22;3777;48.722;8.110;2023-02-03T03:56:34;7.90;99.90
7472;DHT22;3777;48.722;8.110;2023-02-03T03:59:03;7.80;99.90
7472;DHT22;3777;48.722;8.110;2023-02-03T04:01:33;7.80;99.90
7472;DHT22;3777;48.722;8.110;2023-02-03T04:04:06;7.70;99.90
7472;DHT22;3777;48.722;8.110;2023-02-03T04:06:33;7.80;99.90
7472;DHT22;3777;48.722;8.110;2023-02-03T04:09:00;7.70;99.90
7472;DHT22;3777;48.722;8.110;2023-02-03T04:11:27;7.70;99.90
7472;DHT22;3777;48.722;8.110;2023-02-03T04:14:11;7.70;99.90
7472;DHT22;3777;48.722;8.110;2023-02-03T04:16:38;7.70;99.90
7472;DHT22;3777;48.722;8.110;2023-02-03T04:19:07;7.70;99.90
7472;DHT22;3777;48.722;8.110;2023-02-03T04:21:34;7.70;99.90
7472;DHT22;3777;48.722;8.110;2023-02-03T04:24:01;7.70;99.90
7472;DHT22;3777;48.722;8.110;2023-02-03T04:26:28;7.80;99.90
7472;DHT22;3777;48.722;8.110;2023-02-03T04:28:55;7.70;99.90
7472;DHT22;3777;48.722;8.110;2023-02-03T04:31:21;7.80;99.90
7472;DHT22;3777;48.722;8.110;2023-02-03T04:33:48;7.80;99.90
7472;DHT22;3777;48.722;8.110;2023-02-03T04:36:17;7.80;99.90
7472;DHT22;3777;48.722;8.110;2023-02-03T04:38:44;7.80;99.90
7472;DHT22;3777;48.722;8.110;2023-02-03T04:41:10;7.80;99.90
7472;DHT22;3777;48.722;8.110;2023-02-03T04:43:37;7.80;99.90
7472;DHT22;3777;48.722;8.110;2023-02-03T04:46:04;7.80;99.90
7472;DHT22;3777;48.722;8.110;2023-02-03T04:48:31;7.70;99.90
7472;DHT22;3777;48.722;8.110;2023-02-03T04:51:00;7.70;99.90
7472;DHT22;3777;48.722;8.110;2023-02-03T04:53:29;7.70;99.90
7472;DHT22;3777;48.722;8.110;2023-02-03T04:55:56;7.70;99.90
7472;DHT22;3777;48.722;8.110;2023-02-03T04:58:23;7.70;99.90
7472;DHT22;3777;48.722;8.110;2023-02-03T05:00:51;7.70;99.90
7472;DHT22;3777;48.722;8.110;2023-02-03T05:03:18;7.70;99.90
7472;DHT22;3777;48.722;8.110;2023-02-03T05:05:45;7.70;99.90
7472;DHT22;3777;48.722;8.110;2023-02-03T05:08:15;7.70;99.90
7472;DHT22;3777;48.722;8.110;2023-02-03T05:10:43;7.60;99.90
7472;DHT22;3777;48.722;8.110;2023-02-03T05:13:10;7.50;99.90
7472;DHT22;3777;48.722;8.110;2023-02-03T05:15:37;7.50;99.90
7472;DHT22;3777;48.722;8.110;2023-02-03T05:18:04;7.50;99.90
7472;DHT22;3777;48.722;8.110;2023-02-03T05:20:31;7.50;99.90
7472;DHT22;3777;48.722;8.110;2023-02-03T05:22:58;7.50;99.90
7472;DHT22;3777;48.722;8.110;2023-02-03T05:25:26;7.60;99.90
7472;DHT22;3777;48.722;8.110;2023-02-03T05:27:54;7.60;99.90
7472;DHT22;3777;48.722;8.110;2023-02-03T05:30:21;7.60;99.90
7472;DHT22;3777;48.722;8.110;2023-02-03T05:32:48;7.60;99.90
7472;DHT22;3777;48.722;8.110;2023-02-03T05:35:15;7.50;99.90
7472;DHT22;3777;48.722;8.110;2023-02-03T05:37:43;7.40;99.90
7472;DHT22;3777;48.722;8.110;2023-02-03T05:40:11;7.50;99.90
7472;DHT22;3777;48.722;8.110;2023-02-03T05:42:57;7.50;99.90
7472;DHT22;3777;48.722;8.110;2023-02-03T05:45:24;7.50;99.90
7472;DHT22;3777;48.722;8.110;2023-02-03T05:47:51;7.50;99.90
7472;DHT22;3777;48.722;8.110;2023-02-03T05:50:18;7.40;99.90
7472;DHT22;3777;48.722;8.110;2023-02-03T05:52:45;7.50;99.90
7472;DHT22;3777;48.722;8.110;2023-02-03T05:55:11;7.50;99.90
7472;DHT22;3777;48.722;8.110;2023-02-03T05:57:38;7.40;99.90
7472;DHT22;3777;48.722;8.110;2023-02-03T06:00:08;7.50;99.90
7472;DHT22;3777;48.722;8.110;2023-02-03T06:02:35;7.30;99.90
7472;DHT22;3777;48.722;8.110;2023-02-03T06:05:02;7.40;99.90
7472;DHT22;3777;48.722;8.110;2023-02-03T06:07:29;7.40;99.90
7472;DHT22;3777;48.722;8.110;2023-02-03T06:09:56;7.40;99.90
7472;DHT22;3777;48.722;8.110;2023-02-03T06:12:23;7.40;99.90
7472;DHT22;3777;48.722;8.110;2023-02-03T06:14:50;7.50;99.90
7472;DHT22;3777;48.722;8.110;2023-02-03T06:17:18;7.50;99.90
7472;DHT22;3777;48.722;8.110;2023-02-03T06:19:45;7.50;99.90
7472;DHT22;3777;48.722;8.110;2023-02-03T06:22:12;7.40;99.90
7472;DHT22;3777;48.722;8.110;2023-02-03T06:24:39;7.40;99.90
7472;DHT22;3777;48.722;8.110;2023-02-03T06:27:06;7.40;99.90
7472;DHT22;3777;48.722;8.110;2023-02-03T06:29:33;7.40;99.90
7472;DHT22;3777;48.722;8.110;2023-02-03T06:32:00;7.50;99.90
7472;DHT22;3777;48.722;8.110;2023-02-03T06:34:28;7.40;99.90
7472;DHT22;3777;48.722;8.110;2023-02-03T06:36:55;7.40;99.90
7472;DHT22;3777;48.722;8.110;2023-02-03T06:39:22;7.40;99.90
7472;DHT22;3777;48.722;8.110;2023-02-03T06:41:49;7.40;99.90
7472;DHT22;3777;48.722;8.110;2023-02-03T06:44:16;7.30;99.90
7472;DHT22;3777;48.722;8.110;2023-02-03T06:46:43;7.20;99.90
7472;DHT22;3777;48.722;8.110;2023-02-03T06:49:10;7.20;99.90
7472;DHT22;3777;48.722;8.110;2023-02-03T06:51:38;7.30;99.90
7472;DHT22;3777;48.722;8.110;2023-02-03T06:54:05;7.20;99.90
7472;DHT22;3777;48.722;8.110;2023-02-03T06:56:32;7.20;99.90
7472;DHT22;3777;48.722;8.110;2023-02-03T06:58:59;7.20;99.90
7472;DHT22;3777;48.722;8.110;2023-02-03T07:01:26;7.20;99.90
7472;DHT22;3777;48.722;8.110;2023-02-03T07:03:54;7.30;99.90
7472;DHT22;3777;48.722;8.110;2023-02-03T07:06:23;7.30;99.90
7472;DHT22;3777;48.722;8.110;2023-02-03T07:08:55;7.30;99.90
7472;DHT22;3777;48.722;8.110;2023-02-03T07:11:22;7.30;99.90
7472;DHT22;3777;48.722;8.110;2023-02-03T07:13:49;7.30;99.90
7472;DHT22;3777;48.722;8.110;2023-02-03T07:16:16;7.30;99.90
7472;DHT22;3777;48.722;8.110;2023-02-03T07:18:43;7.30;99.90
7472;DHT22;3777;48.722;8.110;2023-02-03T07:21:11;7.30;99.90
7472;DHT22;3777;48.722;8.110;2023-02-03T07:23:38;7.30;99.90
7472;DHT22;3777;48.722;8.110;2023-02-03T07:26:07;7.40;99.90
7472;DHT22;3777;48.722;8.110;2023-02-03T07:28:34;7.40;99.90
7472;DHT22;3777;48.722;8.110;2023-02-03T07:31:02;7.40;99.90
7472;DHT22;3777;48.722;8.110;2023-02-03T07:33:29;7.40;99.90
7472;DHT22;3777;48.722;8.110;2023-02-03T07:35:58;7.30;99.90
7472;DHT22;3777;48.722;8.110;2023-02-03T07:38:27;7.30;99.90
7472;DHT22;3777;48.722;8.110;2023-02-03T07:40:54;7.40;99.90
7472;DHT22;3777;48.722;8.110;2023-02-03T07:43:22;7.40;99.90
7472;DHT22;3777;48.722;8.110;2023-02-03T07:45:49;7.30;99.90
7472;DHT22;3777;48.722;8.110;2023-02-03T07:48:16;7.40;99.90
7472;DHT22;3777;48.722;8.110;2023-02-03T07:50:43;7.40;99.90
7472;DHT22;3777;48.722;8.110;2023-02-03T07:53:11;7.40;99.90
7472;DHT22;3777;48.722;8.110;2023-02-03T07:55:38;7.50;99.90
7472;DHT22;3777;48.722;8.110;2023-02-03T07:58:05;7.50;99.90
7472;DHT22;3777;48.722;8.110;2023-02-03T08:00:34;7.50;99.90
7472;DHT22;3777;48.722;8.110;2023-02-03T08:03:01;7.60;99.90
7472;DHT22;3777;48.722;8.110;2023-02-03T08:05:28;7.60;99.90
7472;DHT22;3777;48.722;8.110;2023-02-03T08:07:55;7.60;99.90
7472;DHT22;3777;48.722;8.110;2023-02-03T08:10:22;7.70;99.90
7472;DHT22;3777;48.722;8.110;2023-02-03T08:12:51;7.60;99.90
7472;DHT22;3777;48.722;8.110;2023-02-03T08:15:18;7.60;99.90
7472;DHT22;3777;48.722;8.110;2023-02-03T08:17:48;7.60;99.90
7472;DHT22;3777;48.722;8.110;2023-02-03T08:20:15;7.50;99.90
7472;DHT22;3777;48.722;8.110;2023-02-03T08:22:43;7.50;99.90
7472;DHT22;3777;48.722;8.110;2023-02-03T08:25:10;7.50;99.90
7472;DHT22;3777;48.722;8.110;2023-02-03T08:27:37;7.50;99.90
7472;DHT22;3777;48.722;8.110;2023-02-03T08:30:05;7.50;99.90
7472;DHT22;3777;48.722;8.110;2023-02-03T08:32:33;7.50;99.90
7472;DHT22;3777;48.722;8.110;2023-02-03T08:35:01;7.50;99.90
7472;DHT22;3777;48.722;8.110;2023-02-03T08:37:28;7.60;99.90
7472;DHT22;3777;48.722;8.110;2023-02-03T08:39:57;7.70;99.90
7472;DHT22;3777;48.722;8.110;2023-02-03T08:42:24;7.70;99.90
7472;DHT22;3777;48.722;8.110;2023-02-03T08:44:51;7.70;99.90
7472;DHT22;3777;48.722;8.110;2023-02-03T08:47:18;7.80;99.90
7472;DHT22;3777;48.722;8.110;2023-02-03T08:49:45;7.80;99.90
7472;DHT22;3777;48.722;8.110;2023-02-03T08:52:14;7.80;99.90
7472;DHT22;3777;48.722;8.110;2023-02-03T08:54:41;7.90;99.90
7472;DHT22;3777;48.722;8.110;2023-02-03T08:57:08;7.80;99.90
7472;DHT22;3777;48.722;8.110;2023-02-03T08:59:37;7.80;99.90
7472;DHT22;3777;48.722;8.110;2023-02-03T09:02:06;7.80;99.90
7472;DHT22;3777;48.722;8.110;2023-02-03T09:04:34;7.80;99.90
7472;DHT22;3777;48.722;8.110;2023-02-03T09:07:01;7.70;99.90
7472;DHT22;3777;48.722;8.110;2023-02-03T09:09:30;7.60;99.90
7472;DHT22;3777;48.722;8.110;2023-02-03T09:11:57;7.60;99.90
7472;DHT22;3777;48.722;8.110;2023-02-03T09:14:27;7.50;99.90
7472;DHT22;3777;48.722;8.110;2023-02-03T09:16:54;7.40;99.90
7472;DHT22;3777;48.722;8.110;2023-02-03T09:19:22;7.50;99.90
7472;DHT22;3777;48.722;8.110;2023-02-03T09:21:48;7.50;99.90
7472;DHT22;3777;48.722;8.110;2023-02-03T09:24:16;7.40;99.90
7472;DHT22;3777;48.722;8.110;2023-02-03T09:26:44;7.50;99.90
7472;DHT22;3777;48.722;8.110;2023-02-03T09:29:11;7.50;99.90
7472;DHT22;3777;48.722;8.110;2023-02-03T09:31:38;7.50;99.90
7472;DHT22;3777;48.722;8.110;2023-02-03T09:34:05;7.70;99.90
7472;DHT22;3777;48.722;8.110;2023-02-03T09:36:32;7.80;99.90
7472;DHT22;3777;48.722;8.110;2023-02-03T09:38:59;7.90;99.90
7472;DHT22;3777;48.722;8.110;2023-02-03T09:41:47;7.90;99.90
7472;DHT22;3777;48.722;8.110;2023-02-03T09:44:20;7.90;99.90
7472;DHT22;3777;48.722;8.110;2023-02-03T09:46:52;8.00;99.90
7472;DHT22;3777;48.722;8.110;2023-02-03T09:49:24;7.90;99.90
7472;DHT22;3777;48.722;8.110;2023-02-03T09:51:56;7.90;99.90
7472;DHT22;3777;48.722;8.110;2023-02-03T09:54:29;8.00;99.90
7472;DHT22;3777;48.722;8.110;2023-02-03T09:57:06;8.00;99.90
7472;DHT22;3777;48.722;8.110;2023-02-03T09:59:38;8.00;99.90
7472;DHT22;3777;48.722;8.110;2023-02-03T10:02:24;8.00;99.90
7472;DHT22;3777;48.722;8.110;2023-02-03T10:04:57;8.00;99.90
7472;DHT22;3777;48.722;8.110;2023-02-03T10:07:30;8.10;99.90
7472;DHT22;3777;48.722;8.110;2023-02-03T10:10:05;8.20;99.90
7472;DHT22;3777;48.722;8.110;2023-02-03T10:12:49;8.20;99.90
7472;DHT22;3777;48.722;8.110;2023-02-03T10:18:17;8.20;99.90
7472;DHT22;3777;48.722;8.110;2023-02-03T10:20:47;8.30;99.90
7472;DHT22;3777;48.722;8.110;2023-02-03T10:23:18;8.40;99.90
7472;DHT22;3777;48.722;8.110;2023-02-03T10:25:49;8.40;99.90
7472;DHT22;3777;48.722;8.110;2023-02-03T10:28:23;8.40;99.90
7472;DHT22;3777;48.722;8.110;2023-02-03T10:30:54;8.50;99.90
7472;DHT22;3777;48.722;8.110;2023-02-03T10:33:25;8.50;99.90
7472;DHT22;3777;48.722;8.110;2023-02-03T10:35:54;8.60;99.90
7472;DHT22;3777;48.722;8.110;2023-02-03T10:38:38;8.70;99.90
7472;DHT22;3777;48.722;8.110;2023-02-03T10:41:07;8.80;99.90
7472;DHT22;3777;48.722;8.110;2023-02-03T10:43:35;8.80;99.90
7472;DHT22;3777;48.722;8.110;2023-02-03T10:46:18;8.90;99.90
7472;DHT22;3777;48.722;8.110;2023-02-03T10:48:45;8.90;99.90
7472;DHT22;3777;48.722;8.110;2023-02-03T10:51:18;8.90;99.90
7472;DHT22;3777;48.722;8.110;2023-02-03T10:53:46;8.70;99.90
7472;DHT22;3777;48.722;8.110;2023-02-03T10:56:14;8.80;99.90
7472;DHT22;3777;48.722;8.110;2023-02-03T10:58:49;8.70;99.90
7472;DHT22;3777;48.722;8.110;2023-02-03T11:01:18;8.70;99.90
7472;DHT22;3777;48.722;8.110;2023-02-03T11:03:55;8.70;99.90
7472;DHT22;3777;48.722;8.110;2023-02-03T11:06:23;8.70;99.90
7472;DHT22;3777;48.722;8.110;2023-02-03T11:08:50;8.70;99.90
7472;DHT22;3777;48.722;8.110;2023-02-03T11:11:22;8.60;99.90
7472;DHT22;3777;48.722;8.110;2023-02-03T11:14:11;8.70;99.90
7472;DHT22;3777;48.722;8.110;2023-02-03T11:16:42;8.80;99.90
7472;DHT22;3777;48.722;8.110;2023-02-03T11:19:15;8.90;99.90
7472;DHT22;3777;48.722;8.110;2023-02-03T11:21:45;8.90;99.90
7472;DHT22;3777;48.722;8.110;2023-02-03T11:24:18;9.00;99.90
7472;DHT22;3777;48.722;8.110;2023-02-03T11:26:49;8.80;99.90
7472;DHT22;3777;48.722;8.110;2023-02-03T11:29:22;8.80;99.90
7472;DHT22;3777;48.722;8.110;2023-02-03T11:31:51;8.90;99.90
7472;DHT22;3777;48.722;8.110;2023-02-03T11:34:23;9.00;99.90
7472;DHT22;3777;48.722;8.110;2023-02-03T11:36:51;9.10;99.90
7472;DHT22;3777;48.722;8.110;2023-02-03T11:39:22;9.20;99.90
7472;DHT22;3777;48.722;8.110;2023-02-03T11:41:49;9.20;99.90
7472;DHT22;3777;48.722;8.110;2023-02-03T11:44:20;9.10;99.90
7472;DHT22;3777;48.722;8.110;2023-02-03T11:46:50;9.10;99.90
7472;DHT22;3777;48.722;8.110;2023-02-03T11:49:57;9.10;99.90
7472;DHT22;3777;48.722;8.110;2023-02-03T11:55:29;9.30;99.90
7472;DHT22;3777;48.722;8.110;2023-02-03T11:58:19;9.30;99.90
7472;DHT22;3777;48.722;8.110;2023-02-03T12:01:00;9.40;99.90
7472;DHT22;3777;48.722;8.110;2023-02-03T12:03:43;9.40;99.90
7472;DHT22;3777;48.722;8.110;2023-02-03T12:06:22;9.40;99.90
7472;DHT22;3777;48.722;8.110;2023-02-03T12:09:09;9.60;99.90
7472;DHT22;3777;48.722;8.110;2023-02-03T12:11:52;9.60;99.90
7472;DHT22;3777;48.722;8.110;2023-02-03T12:14:33;9.60;99.90
7472;DHT22;3777;48.722;8.110;2023-02-03T12:17:23;9.60;99.90
7472;DHT22;3777;48.722;8.110;2023-02-03T12:20:02;9.80;99.90
7472;DHT22;3777;48.722;8.110;2023-02-03T12:22:36;10.00;99.90
7472;DHT22;3777;48.722;8.110;2023-02-03T12:25:21;10.20;99.90
7472;DHT22;3777;48.722;8.110;2023-02-03T12:28:00;10.40;99.90
7472;DHT22;3777;48.722;8.110;2023-02-03T12:30:34;10.50;99.90
7472;DHT22;3777;48.722;8.110;2023-02-03T12:33:12;10.70;99.90
7472;DHT22;3777;48.722;8.110;2023-02-03T12:35:46;10.60;99.90
7472;DHT22;3777;48.722;8.110;2023-02-03T12:38:16;10.60;99.90
7472;DHT22;3777;48.722;8.110;2023-02-03T12:40:53;10.70;99.90
7472;DHT22;3777;48.722;8.110;2023-02-03T12:43:24;10.80;99.90
7472;DHT22;3777;48.722;8.110;2023-02-03T12:45:56;10.70;99.90
7472;DHT22;3777;48.722;8.110;2023-02-03T12:48:35;10.70;99.90
7472;DHT22;3777;48.722;8.110;2023-02-03T12:51:09;10.60;99.90
7472;DHT22;3777;48.722;8.110;2023-02-03T12:53:41;10.60;99.90
7472;DHT22;3777;48.722;8.110;2023-02-03T12:56:12;10.50;99.90
7472;DHT22;3777;48.722;8.110;2023-02-03T12:58:44;10.40;99.90
7472;DHT22;3777;48.722;8.110;2023-02-03T13:01:18;10.40;99.90
7472;DHT22;3777;48.722;8.110;2023-02-03T13:03:53;10.40;99.90
7472;DHT22;3777;48.722;8.110;2023-02-03T13:06:25;10.30;99.90
7472;DHT22;3777;48.722;8.110;2023-02-03T13:08:57;10.30;99.90
7472;DHT22;3777;48.722;8.110;2023-02-03T13:11:32;10.30;99.90
7472;DHT22;3777;48.722;8.110;2023-02-03T13:14:08;10.40;99.90
7472;DHT22;3777;48.722;8.110;2023-02-03T13:16:41;10.40;99.90
7472;DHT22;3777;48.722;8.110;2023-02-03T13:19:16;10.50;99.90
7472;DHT22;3777;48.722;8.110;2023-02-03T13:21:45;10.50;99.90
7472;DHT22;3777;48.722;8.110;2023-02-03T13:24:13;10.50;99.90
7472;DHT22;3777;48.722;8.110;2023-02-03T13:27:02;10.40;99.90
7472;DHT22;3777;48.722;8.110;2023-02-03T13:29:51;10.40;99.90
7472;DHT22;3777;48.722;8.110;2023-02-03T13:32:39;10.20;99.90
7472;DHT22;3777;48.722;8.110;2023-02-03T13:35:24;10.20;99.90
7472;DHT22;3777;48.722;8.110;2023-02-03T13:38:20;10.30;99.90
7472;DHT22;3777;48.722;8.110;2023-02-03T13:40:57;10.20;99.90
7472;DHT22;3777;48.722;8.110;2023-02-03T13:43:27;10.20;99.90
7472;DHT22;3777;48.722;8.110;2023-02-03T13:45:56;10.20;99.90
7472;DHT22;3777;48.722;8.110;2023-02-03T13:48:25;10.20;99.90
7472;DHT22;3777;48.722;8.110;2023-02-03T13:51:04;10.20;99.90
7472;DHT22;3777;48.722;8.110;2023-02-03T13:53:34;10.30;99.90
7472;DHT22;3777;48.722;8.110;2023-02-03T13:56:04;10.20;99.90
7472;DHT22;3777;48.722;8.110;2023-02-03T13:58:34;10.30;99.90
7472;DHT22;3777;48.722;8.110;2023-02-03T14:01:28;10.40;99.90
7472;DHT22;3777;48.722;8.110;2023-02-03T14:03:58;10.40;99.90
7472;DHT22;3777;48.722;8.110;2023-02-03T14:07:00;10.40;99.90
7472;DHT22;3777;48.722;8.110;2023-02-03T14:12:53;10.30;99.90
7472;DHT22;3777;48.722;8.110;2023-02-03T14:15:31;10.30;99.90
7472;DHT22;3777;48.722;8.110;2023-02-03T14:18:34;10.40;99.90
7472;DHT22;3777;48.722;8.110;2023-02-03T14:21:11;10.30;99.90
7472;DHT22;3777;48.722;8.110;2023-02-03T14:23:44;10.40;99.90
7472;DHT22;3777;48.722;8.110;2023-02-03T14:26:23;10.40;99.90
7472;DHT22;3777;48.722;8.110;2023-02-03T14:28:54;10.40;99.90
7472;DHT22;3777;48.722;8.110;2023-02-03T14:31:22;10.40;99.90
7472;DHT22;3777;48.722;8.110;2023-02-03T14:34:05;10.50;99.90
7472;DHT22;3777;48.722;8.110;2023-02-03T14:36:48;10.50;99.90
7472;DHT22;3777;48.722;8.110;2023-02-03T14:45:35;10.50;99.90
7472;DHT22;3777;48.722;8.110;2023-02-03T14:48:17;10.40;99.90
7472;DHT22;3777;48.722;8.110;2023-02-03T14:51:00;10.50;99.90
7472;DHT22;3777;48.722;8.110;2023-02-03T14:53:45;10.50;99.90
7472;DHT22;3777;48.722;8.110;2023-02-03T14:56:24;10.40;99.90
7472;DHT22;3777;48.722;8.110;2023-02-03T14:58:56;10.40;99.90
7472;DHT22;3777;48.722;8.110;2023-02-03T15:04:32;10.50;99.90
7472;DHT22;3777;48.722;8.110;2023-02-03T15:07:01;10.50;99.90
7472;DHT22;3777;48.722;8.110;2023-02-03T15:09:30;10.60;99.90
7472;DHT22;3777;48.722;8.110;2023-02-03T15:11:58;10.50;99.90
7472;DHT22;3777;48.722;8.110;2023-02-03T15:14:27;10.60;99.90
7472;DHT22;3777;48.722;8.110;2023-02-03T15:16:58;10.60;99.90
7472;DHT22;3777;48.722;8.110;2023-02-03T15:19:27;10.60;99.90
7472;DHT22;3777;48.722;8.110;2023-02-03T15:21:54;10.60;99.90
7472;DHT22;3777;48.722;8.110;2023-02-03T15:24:23;10.60;99.90
7472;DHT22;3777;48.722;8.110;2023-02-03T15:26:52;10.60;99.90
7472;DHT22;3777;48.722;8.110;2023-02-03T15:29:22;10.60;99.90
7472;DHT22;3777;48.722;8.110;2023-02-03T15:31:55;10.50;99.90
7472;DHT22;3777;48.722;8.110;2023-02-03T15:34:27;10.50;99.90
7472;DHT22;3777;48.722;8.110;2023-02-03T15:36:57;10.50;99.90
7472;DHT22;3777;48.722;8.110;2023-02-03T15:39:36;10.50;99.90
7472;DHT22;3777;48.722;8.110;2023-02-03T15:42:08;10.50;99.90
7472;DHT22;3777;48.722;8.110;2023-02-03T15:44:42;10.50;99.90
7472;DHT22;3777;48.722;8.110;2023-02-03T15:47:23;10.50;99.90
7472;DHT22;3777;48.722;8.110;2023-02-03T15:50:02;10.50;99.90
7472;DHT22;3777;48.722;8.110;2023-02-03T15:52:33;10.50;99.90
7472;DHT22;3777;48.722;8.110;2023-02-03T15:55:09;10.50;99.90
7472;DHT22;3777;48.722;8.110;2023-02-03T15:57:39;10.40;99.90
7472;DHT22;3777;48.722;8.110;2023-02-03T16:00:11;10.50;99.90
7472;DHT22;3777;48.722;8.110;2023-02-03T16:02:51;10.40;99.90
7472;DHT22;3777;48.722;8.110;2023-02-03T16:05:23;10.40;99.90
7472;DHT22;3777;48.722;8.110;2023-02-03T16:07:51;10.40;99.90
7472;DHT22;3777;48.722;8.110;2023-02-03T16:10:28;10.40;99.90
7472;DHT22;3777;48.722;8.110;2023-02-03T16:13:17;10.40;99.90
7472;DHT22;3777;48.722;8.110;2023-02-03T16:15:59;10.40;99.90
7472;DHT22;3777;48.722;8.110;2023-02-03T16:18:27;10.40;99.90
7472;DHT22;3777;48.722;8.110;2023-02-03T16:20:54;10.30;99.90
7472;DHT22;3777;48.722;8.110;2023-02-03T16:23:23;10.30;99.90
7472;DHT22;3777;48.722;8.110;2023-02-03T16:26:14;10.30;99.90
7472;DHT22;3777;48.722;8.110;2023-02-03T16:28:43;10.30;99.90
7472;DHT22;3777;48.722;8.110;2023-02-03T16:31:27;10.30;99.90
7472;DHT22;3777;48.722;8.110;2023-02-03T16:34:13;10.30;99.90
7472;DHT22;3777;48.722;8.110;2023-02-03T16:36:58;10.20;99.90
7472;DHT22;3777;48.722;8.110;2023-02-03T16:39:42;10.20;99.90
7472;DHT22;3777;48.722;8.110;2023-02-03T16:42:36;10.20;99.90
7472;DHT22;3777;48.722;8.110;2023-02-03T16:45:21;10.20;99.90
7472;DHT22;3777;48.722;8.110;2023-02-03T16:48:07;10.20;99.90
7472;DHT22;3777;48.722;8.110;2023-02-03T16:50:52;10.20;99.90
7472;DHT22;3777;48.722;8.110;2023-02-03T16:53:21;10.20;99.90
7472;DHT22;3777;48.722;8.110;2023-02-03T16:55:50;10.20;99.90
7472;DHT22;3777;48.722;8.110;2023-02-03T16:58:18;10.20;99.90
7472;DHT22;3777;48.722;8.110;2023-02-03T17:00:47;10.00;99.90
7472;DHT22;3777;48.722;8.110;2023-02-03T17:03:16;10.10;99.90
7472;DHT22;3777;48.722;8.110;2023-02-03T17:05:44;10.10;99.90